Time;durP1;ratioP1;P1;durP2;ratioP2;P2;SDS_P1;SDS_P2;PMS_P1;PMS_P2;Temp;Humidity;BMP_temperature;BMP_pressure;BME280_temperature;BME280_humidity;BME280_pressure;Samples;Min_cycle;Max_cycle;Signal;HPM_P1;HPM_P2
2023/07/08 00:00:23;;;;;;;3.60;2.67;;;27.80;43.20;;;;;;4963283;28;20499;-67
2023/07/08 00:02:50;;;;;;;3.17;2.60;;;27.80;43.20;;;;;;4978529;28;20026;-67
2023/07/08 00:05:18;;;;;;;4.05;3.00;;;27.80;43.20;;;;;;4980273;28;20030;-67
2023/07/08 00:07:44;;;;;;;4.15;2.75;;;27.80;43.20;;;;;;4978436;28;20031;-67
2023/07/08 00:10:17;;;;;;;3.65;2.70;;;27.80;43.20;;;;;;4960570;28;20026;-67
2023/07/08 00:12:44;;;;;;;3.75;2.70;;;27.80;43.10;;;;;;4977094;28;20396;-67
2023/07/08 00:15:11;;;;;;;3.70;2.80;;;27.70;43.10;;;;;;4978922;28;20109;-67
2023/07/08 00:17:37;;;;;;;3.60;2.78;;;27.80;43.20;;;;;;4979084;28;20603;-67
2023/07/08 00:20:23;;;;;;;3.72;2.70;;;27.70;43.10;;;;;;4978453;28;20060;-67
2023/07/08 00:22:52;;;;;;;4.18;3.00;;;27.70;43.10;;;;;;4980411;28;20043;-67
2023/07/08 00:25:19;;;;;;;3.85;2.70;;;27.70;43.10;;;;;;4979266;28;20402;-67
2023/07/08 00:27:47;;;;;;;3.38;2.63;;;27.70;43.10;;;;;;4977380;28;20130;-67
2023/07/08 00:30:28;;;;;;;3.28;2.58;;;27.70;43.10;;;;;;4981018;28;20501;-67
2023/07/08 00:32:55;;;;;;;3.72;2.92;;;27.70;43.10;;;;;;4977737;28;20026;-67
2023/07/08 00:35:34;;;;;;;3.42;2.60;;;27.70;43.10;;;;;;4978690;28;20109;-67
2023/07/08 00:38:12;;;;;;;3.58;2.70;;;27.70;43.10;;;;;;4977798;28;20144;-68
2023/07/08 00:40:38;;;;;;;3.65;2.90;;;27.60;43.00;;;;;;4976728;28;20042;-68
2023/07/08 00:43:05;;;;;;;3.47;2.78;;;27.60;43.00;;;;;;4978151;28;20529;-67
2023/07/08 00:45:41;;;;;;;3.72;2.63;;;27.60;43.00;;;;;;4980386;28;20027;-67
2023/07/08 00:48:28;;;;;;;3.83;2.83;;;27.60;43.00;;;;;;4981017;28;20458;-67
2023/07/08 00:50:54;;;;;;;3.70;2.90;;;27.60;43.10;;;;;;4982270;28;20769;-67
2023/07/08 00:53:24;;;;;;;3.45;2.63;;;27.60;43.10;;;;;;4985010;28;20150;-68
2023/07/08 00:56:04;;;;;;;3.30;2.75;;;27.60;43.10;;;;;;4985644;28;20026;-68
2023/07/08 00:58:32;;;;;;;;;;;27.50;43.00;;;;;;4982090;28;20026;-67
2023/07/08 01:00:58;;;;;;;3.67;2.83;;;27.60;43.10;;;;;;4983259;28;20366;-67
2023/07/08 01:03:27;;;;;;;3.88;2.90;;;27.50;43.00;;;;;;4970272;28;20517;-67
2023/07/08 01:05:56;;;;;;;3.70;2.80;;;27.50;43.10;;;;;;4983386;28;20568;-67
2023/07/08 01:08:28;;;;;;;3.50;2.83;;;27.50;43.10;;;;;;4984215;28;20062;-67
2023/07/08 01:10:58;;;;;;;3.78;2.72;;;27.50;43.10;;;;;;4984835;28;20026;-67
2023/07/08 01:13:24;;;;;;;3.45;2.80;;;27.50;43.10;;;;;;4968164;28;20453;-68
2023/07/08 01:15:50;;;;;;;3.53;2.88;;;27.50;43.20;;;;;;4985881;28;20078;-67
2023/07/08 01:18:24;;;;;;;3.58;2.88;;;27.40;43.10;;;;;;4975252;28;20029;-67
2023/07/08 01:20:50;;;;;;;3.60;2.90;;;27.50;43.10;;;;;;4982915;28;20089;-67
2023/07/08 01:23:17;;;;;;;3.45;2.78;;;27.40;43.10;;;;;;4970356;28;20026;-67
2023/07/08 01:25:45;;;;;;;3.75;2.80;;;27.40;43.10;;;;;;4984136;28;20030;-68
2023/07/08 01:28:11;;;;;;;3.83;2.80;;;27.40;43.10;;;;;;4982521;28;20054;-67
2023/07/08 01:30:37;;;;;;;3.85;2.70;;;27.40;43.10;;;;;;4984193;28;20041;-67
2023/07/08 01:33:12;;;;;;;3.42;2.70;;;27.40;43.10;;;;;;4984576;28;20034;-68
2023/07/08 01:35:37;;;;;;;3.72;2.70;;;27.40;43.20;;;;;;4984314;28;20101;-68
2023/07/08 01:38:08;;;;;;;2.95;2.25;;;27.40;43.20;;;;;;4983381;28;20137;-68
2023/07/08 01:40:36;;;;;;;3.45;2.60;;;27.40;43.20;;;;;;4985850;28;20043;-68
2023/07/08 01:43:04;;;;;;;3.30;2.50;;;27.30;43.20;;;;;;4984593;28;20088;-68
2023/07/08 01:45:36;;;;;;;3.40;2.40;;;27.30;43.20;;;;;;4968429;28;20061;-68
2023/07/08 01:48:09;;;;;;;3.63;2.85;;;27.30;43.20;;;;;;4983828;28;20031;-67
2023/07/08 01:50:40;;;;;;;3.15;2.50;;;27.30;43.20;;;;;;4984099;28;20043;-67
2023/07/08 01:53:11;;;;;;;3.35;2.67;;;27.30;43.20;;;;;;4967443;28;20037;-67
2023/07/08 01:55:37;;;;;;;3.03;2.33;;;27.30;43.30;;;;;;4985698;28;20027;-67
2023/07/08 01:58:03;;;;;;;3.28;2.47;;;27.20;43.20;;;;;;4983654;28;20049;-67
2023/07/08 02:00:28;;;;;;;2.80;2.20;;;27.20;43.30;;;;;;4984076;28;20035;-67
2023/07/08 02:02:54;;;;;;;2.90;2.40;;;27.20;43.30;;;;;;4980479;28;20458;-67
2023/07/08 02:05:19;;;;;;;2.83;2.17;;;27.20;43.30;;;;;;4981010;28;20027;-67
2023/07/08 02:07:45;;;;;;;2.97;2.22;;;27.20;43.30;;;;;;4982420;28;20382;-67
2023/07/08 02:10:11;;;;;;;2.90;2.15;;;27.20;43.30;;;;;;4980675;28;20030;-68
2023/07/08 02:12:37;;;;;;;3.10;2.45;;;27.20;43.40;;;;;;4976101;28;20043;-67
2023/07/08 02:15:04;;;;;;;2.95;2.35;;;27.10;43.30;;;;;;4981446;28;20489;-67
2023/07/08 02:17:30;;;;;;;3.13;2.40;;;27.20;43.40;;;;;;4963850;28;20478;-67
2023/07/08 02:19:56;;;;;;;3.30;2.80;;;27.10;43.30;;;;;;4982399;28;20035;-67
2023/07/08 02:22:21;;;;;;;3.50;2.40;;;27.10;43.30;;;;;;4980492;28;20089;-67
2023/07/08 02:24:47;;;;;;;2.83;2.20;;;27.10;43.40;;;;;;4964113;28;20038;-67
2023/07/08 02:27:13;;;;;;;3.15;2.30;;;27.10;43.40;;;;;;4980275;28;20196;-67
2023/07/08 02:29:39;;;;;;;3.15;2.25;;;27.10;43.40;;;;;;4979373;28;20030;-68
2023/07/08 02:32:05;;;;;;;3.05;2.15;;;27.00;43.30;;;;;;4981256;28;20038;-68
2023/07/08 02:34:31;;;;;;;3.38;2.55;;;27.10;43.40;;;;;;4980015;28;20057;-67
2023/07/08 02:36:57;;;;;;;3.25;2.28;;;27.10;43.40;;;;;;4980675;28;20058;-67
2023/07/08 02:39:23;;;;;;;3.03;2.10;;;27.00;43.40;;;;;;4979904;28;20027;-67
2023/07/08 02:41:48;;;;;;;2.92;2.28;;;27.00;43.40;;;;;;4980921;28;20451;-67
2023/07/08 02:44:14;;;;;;;3.17;2.33;;;27.00;43.40;;;;;;4979346;28;20113;-67
2023/07/08 02:46:40;;;;;;;2.90;2.25;;;27.00;43.40;;;;;;4969273;28;20080;-68
2023/07/08 02:49:06;;;;;;;2.88;2.20;;;27.00;43.40;;;;;;4971892;28;20034;-68
2023/07/08 02:51:32;;;;;;;3.30;2.40;;;27.00;43.50;;;;;;4981480;28;20537;-68
2023/07/08 02:53:58;;;;;;;3.03;2.30;;;27.00;43.50;;;;;;4981674;28;20125;-68
2023/07/08 02:56:23;;;;;;;3.10;2.15;;;27.00;43.50;;;;;;4979939;28;20130;-67
2023/07/08 02:58:49;;;;;;;2.80;2.22;;;27.00;43.50;;;;;;4978557;28;20035;-67
2023/07/08 03:01:18;;;;;;;2.67;2.15;;;26.90;43.40;;;;;;4981031;28;20037;-67
2023/07/08 03:03:47;;;;;;;2.67;2.17;;;27.00;43.60;;;;;;4982143;28;20046;-67
2023/07/08 03:06:13;;;;;;;2.80;2.15;;;26.90;43.50;;;;;;4981340;28;20038;-68
2023/07/08 03:08:39;;;;;;;2.83;2.00;;;26.90;43.50;;;;;;4979976;28;20062;-67
2023/07/08 03:11:07;;;;;;;2.60;2.10;;;26.90;43.50;;;;;;4981193;28;20182;-67
2023/07/08 03:13:34;;;;;;;2.90;2.25;;;26.90;43.50;;;;;;4978564;28;20033;-67
2023/07/08 03:16:01;;;;;;;3.20;2.25;;;26.90;43.50;;;;;;4964847;28;20026;-67
2023/07/08 03:18:28;;;;;;;2.90;2.10;;;26.90;43.50;;;;;;4981048;28;20026;-67
2023/07/08 03:20:57;;;;;;;3.08;2.10;;;26.90;43.50;;;;;;4980496;28;20089;-67
2023/07/08 03:23:24;;;;;;;3.05;2.22;;;26.90;43.50;;;;;;4979852;28;20509;-67
2023/07/08 03:25:50;;;;;;;2.88;2.25;;;26.80;43.50;;;;;;4980168;28;20034;-67
2023/07/08 03:28:16;;;;;;;2.40;1.90;;;26.80;43.50;;;;;;4963744;28;20487;-67
2023/07/08 03:30:42;;;;;;;2.83;2.00;;;26.80;43.50;;;;;;4978914;28;20039;-67
2023/07/08 03:33:09;;;;;;;2.60;2.03;;;26.80;43.50;;;;;;4980882;28;20816;-67
2023/07/08 03:35:35;;;;;;;2.85;2.13;;;26.80;43.50;;;;;;4979675;28;20027;-68
2023/07/08 03:38:01;;;;;;;2.47;1.95;;;26.80;43.60;;;;;;4963809;28;20046;-67
2023/07/08 03:40:26;;;;;;;2.70;1.90;;;26.80;43.50;;;;;;4979939;28;20042;-68
2023/07/08 03:42:52;;;;;;;2.97;2.15;;;26.80;43.50;;;;;;4980312;28;20030;-67
2023/07/08 03:45:18;;;;;;;2.72;1.90;;;26.80;43.60;;;;;;4978237;28;20479;-68
2023/07/08 03:47:43;;;;;;;2.50;2.00;;;26.80;43.60;;;;;;4966344;28;20027;-67
2023/07/08 03:50:20;;;;;;;2.80;2.08;;;26.70;44.10;;;;;;4982423;28;20081;-68
2023/07/08 03:52:47;;;;;;;2.60;1.92;;;26.80;43.60;;;;;;4978160;28;20117;-67
2023/07/08 03:55:13;;;;;;;2.60;1.95;;;26.80;43.60;;;;;;4964135;28;20096;-68
2023/07/08 03:57:39;;;;;;;2.50;1.80;;;26.70;43.60;;;;;;4978724;28;20045;-67
2023/07/08 04:00:09;;;;;;;2.63;1.90;;;26.80;43.60;;;;;;4977874;28;20479;-67
2023/07/08 04:02:35;;;;;;;3.10;2.15;;;26.70;43.60;;;;;;4978022;28;20108;-67
2023/07/08 04:05:01;;;;;;;2.78;2.10;;;26.70;43.60;;;;;;4978445;28;20031;-67
2023/07/08 04:07:26;;;;;;;3.13;2.20;;;26.70;43.60;;;;;;4979946;28;20336;-67
2023/07/08 04:09:52;;;;;;;2.65;1.92;;;26.70;43.60;;;;;;4977107;28;20026;-67
2023/07/08 04:12:18;;;;;;;2.70;2.03;;;26.70;43.60;;;;;;4978350;28;20033;-68
2023/07/08 04:14:43;;;;;;;3.08;2.20;;;26.70;43.70;;;;;;4968296;28;20434;-68
2023/07/08 04:17:10;;;;;;;3.00;2.20;;;26.70;43.60;;;;;;4979827;28;20039;-68
2023/07/08 04:19:36;;;;;;;2.75;2.10;;;26.70;44.20;;;;;;4980267;28;20114;-67
2023/07/08 04:22:02;;;;;;;2.65;1.92;;;26.70;43.60;;;;;;4977622;28;20050;-67
2023/07/08 04:24:28;;;;;;;2.78;2.10;;;26.70;43.60;;;;;;4980199;28;20117;-67
2023/07/08 04:26:54;;;;;;;2.50;1.70;;;26.60;43.60;;;;;;4977235;28;20126;-67
2023/07/08 04:29:22;;;;;;;2.45;1.90;;;26.60;43.60;;;;;;4978897;28;20022;-68
2023/07/08 04:31:48;;;;;;;2.88;2.10;;;26.60;43.60;;;;;;4977601;28;20291;-67
2023/07/08 04:34:15;;;;;;;2.65;2.00;;;26.60;43.60;;;;;;4978965;28;20030;-68
2023/07/08 04:36:40;;;;;;;2.53;1.85;;;26.60;43.60;;;;;;4977759;28;20420;-68
2023/07/08 04:39:08;;;;;;;2.30;1.88;;;26.60;43.60;;;;;;4978976;28;20108;-68
2023/07/08 04:41:34;;;;;;;2.55;1.83;;;26.60;43.60;;;;;;4960938;28;20030;-68
2023/07/08 04:44:02;;;;;;;2.85;2.00;;;26.60;43.60;;;;;;4976058;28;20045;-67
2023/07/08 04:46:57;;;;;;;2.50;1.88;;;26.50;43.50;;;;;;4978331;28;20518;-68
2023/07/08 04:49:24;;;;;;;2.70;1.90;;;26.60;43.60;;;;;;4961442;28;20428;-67
2023/07/08 04:51:51;;;;;;;2.65;1.92;;;26.60;43.60;;;;;;4978921;28;20050;-68
2023/07/08 04:54:17;;;;;;;2.60;1.83;;;26.50;43.50;;;;;;4976898;28;20026;-68
2023/07/08 04:56:45;;;;;;;2.78;2.00;;;26.50;43.60;;;;;;4977842;28;20085;-68
2023/07/08 04:59:16;;;;;;;2.38;1.77;;;26.50;43.60;;;;;;4963380;28;20114;-67
2023/07/08 05:01:42;;;;;;;2.90;2.05;;;26.50;43.60;;;;;;4980453;28;20388;-67
2023/07/08 05:04:10;;;;;;;2.97;2.30;;;26.50;43.60;;;;;;4978654;28;20026;-67
2023/07/08 05:06:36;;;;;;;2.70;2.00;;;26.50;43.60;;;;;;4978843;28;20062;-67
2023/07/08 05:09:03;;;;;;;2.33;1.70;;;26.50;43.60;;;;;;4978901;28;20077;-67
2023/07/08 05:11:29;;;;;;;2.70;2.10;;;26.50;43.70;;;;;;4976909;28;20082;-67
2023/07/08 05:13:55;;;;;;;2.60;1.90;;;26.50;43.70;;;;;;4977494;28;20482;-67
2023/07/08 05:16:21;;;;;;;2.35;1.88;;;26.50;43.70;;;;;;4978100;28;20034;-68
2023/07/08 05:18:47;;;;;;;2.50;1.90;;;26.50;43.70;;;;;;4979153;28;20388;-67
2023/07/08 05:21:13;;;;;;;2.80;1.83;;;26.50;43.70;;;;;;4977262;28;20031;-67
2023/07/08 05:23:39;;;;;;;2.50;1.90;;;26.50;43.70;;;;;;4979570;28;20463;-67
2023/07/08 05:26:07;;;;;;;2.72;2.05;;;26.50;43.70;;;;;;4976959;28;20041;-67
2023/07/08 05:28:33;;;;;;;2.55;1.80;;;26.50;43.70;;;;;;4976403;28;20031;-67
2023/07/08 05:30:59;;;;;;;2.17;1.70;;;26.50;43.70;;;;;;4977068;28;20061;-67
2023/07/08 05:33:27;;;;;;;2.63;1.85;;;26.50;43.70;;;;;;4962856;28;20026;-67
2023/07/08 05:35:53;;;;;;;2.70;2.00;;;26.40;43.70;;;;;;4977351;28;20037;-67
2023/07/08 05:38:18;;;;;;;3.00;1.98;;;26.40;43.70;;;;;;4980276;28;20034;-67
2023/07/08 05:40:49;;;;;;;2.92;1.98;;;26.40;43.70;;;;;;4981318;28;20027;-67
2023/07/08 05:43:15;;;;;;;2.70;1.90;;;26.50;43.70;;;;;;4981483;28;20041;-67
2023/07/08 05:45:41;;;;;;;2.50;1.88;;;26.40;43.70;;;;;;4981502;28;20069;-68
2023/07/08 05:48:07;;;;;;;2.60;2.00;;;26.40;43.70;;;;;;4983632;28;20459;-67
2023/07/08 05:50:32;;;;;;;3.67;2.10;;;26.40;43.70;;;;;;4982870;28;20026;-67
2023/07/08 05:52:58;;;;;;;2.80;2.05;;;26.40;43.70;;;;;;4982673;28;20034;-67
2023/07/08 05:55:24;;;;;;;2.55;1.77;;;26.40;43.70;;;;;;4980520;28;20062;-67
2023/07/08 05:57:49;;;;;;;2.50;1.90;;;26.40;43.70;;;;;;4982472;28;20540;-67
2023/07/08 06:00:15;;;;;;;2.72;1.95;;;26.40;43.70;;;;;;4979799;28;20387;-67
2023/07/08 06:02:41;;;;;;;2.50;1.90;;;26.40;43.80;;;;;;4981821;28;20034;-67
2023/07/08 06:05:07;;;;;;;2.58;1.90;;;26.40;43.70;;;;;;4964649;28;20069;-67
2023/07/08 06:07:33;;;;;;;3.28;2.10;;;26.40;43.80;;;;;;4982867;28;20062;-67
2023/07/08 06:09:59;;;;;;;2.60;1.77;;;26.40;43.80;;;;;;4980340;28;20038;-67
2023/07/08 06:12:25;;;;;;;2.42;1.77;;;26.40;43.80;;;;;;4980726;28;20471;-67
2023/07/08 06:14:51;;;;;;;2.40;1.80;;;26.40;43.80;;;;;;4965834;28;20455;-67
2023/07/08 06:17:17;;;;;;;2.65;1.90;;;26.40;44.40;;;;;;4981735;28;20070;-67
2023/07/08 06:19:43;;;;;;;2.65;1.90;;;26.30;43.80;;;;;;4980943;28;20483;-67
2023/07/08 06:22:08;;;;;;;2.70;1.90;;;26.30;43.70;;;;;;4972390;28;20034;-67
2023/07/08 06:24:34;;;;;;;2.50;1.77;;;26.30;43.80;;;;;;4982247;28;20497;-67
2023/07/08 06:27:00;;;;;;;2.90;1.90;;;26.30;43.80;;;;;;4980745;28;20093;-67
2023/07/08 06:29:26;;;;;;;2.78;2.05;;;26.30;43.80;;;;;;4980578;28;20124;-67
2023/07/08 06:31:52;;;;;;;2.38;1.80;;;26.30;43.80;;;;;;4970732;28;20038;-67
2023/07/08 06:34:22;;;;;;;2.95;1.90;;;26.30;43.80;;;;;;4980791;28;20093;-68
2023/07/08 06:36:48;;;;;;;;;;;26.30;43.80;;;;;;4968131;28;20045;-68
2023/07/08 06:39:13;;;;;;;2.85;2.00;;;26.30;43.80;;;;;;4981615;28;19913;-68
2023/07/08 06:41:39;;;;;;;2.30;1.77;;;26.30;43.80;;;;;;4981956;28;20022;-68
2023/07/08 06:44:04;;;;;;;2.40;1.90;;;26.30;43.80;;;;;;4967352;28;20057;-68
2023/07/08 06:46:30;;;;;;;2.67;1.95;;;26.30;43.80;;;;;;4979425;28;20393;-68
2023/07/08 06:48:56;;;;;;;2.45;1.77;;;26.30;43.80;;;;;;4977634;28;20030;-67
2023/07/08 06:51:21;;;;;;;2.97;2.05;;;26.30;43.80;;;;;;4962160;28;20039;-68
2023/07/08 06:53:47;;;;;;;2.60;1.80;;;26.30;43.90;;;;;;4978819;28;20031;-68
2023/07/08 06:56:13;;;;;;;2.50;2.00;;;26.30;43.90;;;;;;4978770;28;20496;-68
2023/07/08 06:58:38;;;;;;;2.75;2.10;;;26.30;43.90;;;;;;4962751;28;20069;-68
2023/07/08 07:01:04;;;;;;;2.28;1.75;;;26.30;43.90;;;;;;4962551;28;20082;-68
2023/07/08 07:03:30;;;;;;;2.35;1.75;;;26.30;43.90;;;;;;4980655;28;20023;-68
2023/07/08 07:05:55;;;;;;;2.67;1.90;;;26.30;43.90;;;;;;4965043;28;20023;-68
2023/07/08 07:08:21;;;;;;;2.65;1.92;;;26.30;43.90;;;;;;4979545;28;20035;-68
2023/07/08 07:10:47;;;;;;;2.22;1.60;;;26.30;43.90;;;;;;4984627;28;20105;-68
2023/07/08 07:13:12;;;;;;;2.40;1.90;;;26.30;43.90;;;;;;4971053;28;20343;-67
2023/07/08 07:15:38;;;;;;;2.28;1.77;;;26.30;43.90;;;;;;4977702;28;20053;-68
2023/07/08 07:18:04;;;;;;;2.30;1.80;;;26.30;44.00;;;;;;4978570;28;20447;-68
2023/07/08 07:20:30;;;;;;;2.47;1.80;;;26.30;44.00;;;;;;4978278;28;20471;-68
2023/07/08 07:22:55;;;;;;;2.75;2.00;;;26.20;43.90;;;;;;4979169;28;20045;-68
2023/07/08 07:25:21;;;;;;;2.40;1.65;;;26.20;43.90;;;;;;4979278;28;20042;-68
2023/07/08 07:27:47;;;;;;;2.42;1.98;;;26.30;44.00;;;;;;4979454;28;20418;-68
2023/07/08 07:30:14;;;;;;;2.60;1.92;;;26.20;43.90;;;;;;4979104;28;20034;-67
2023/07/08 07:32:42;;;;;;;2.45;1.95;;;26.20;44.00;;;;;;4978883;28;20023;-68
2023/07/08 07:35:12;;;;;;;2.42;1.90;;;26.20;44.00;;;;;;4979371;28;20336;-67
2023/07/08 07:37:39;;;;;;;2.40;1.80;;;26.20;44.00;;;;;;4978481;28;20035;-67
2023/07/08 07:40:15;;;;;;;2.75;1.90;;;26.30;44.10;;;;;;4961959;28;20122;-68
2023/07/08 07:42:42;;;;;;;2.55;1.92;;;26.20;44.00;;;;;;4979207;28;20141;-67
2023/07/08 07:45:09;;;;;;;2.70;2.00;;;26.20;44.00;;;;;;4979441;28;20678;-67
2023/07/08 07:47:35;;;;;;;2.60;1.90;;;26.20;44.00;;;;;;4981466;28;20030;-68
2023/07/08 07:50:02;;;;;;;3.53;2.20;;;26.20;44.00;;;;;;4962965;28;20089;-68
2023/07/08 07:52:27;;;;;;;3.25;2.35;;;26.20;44.00;;;;;;4981548;28;20030;-68
2023/07/08 07:54:54;;;;;;;2.58;2.00;;;26.20;44.00;;;;;;4962204;28;20023;-67
2023/07/08 07:57:23;;;;;;;2.35;1.90;;;26.20;44.00;;;;;;4964732;28;20023;-68
2023/07/08 07:59:49;;;;;;;2.40;1.88;;;26.20;44.10;;;;;;4979443;28;20456;-68
2023/07/08 08:02:16;;;;;;;2.67;2.00;;;26.20;44.10;;;;;;4976612;28;20161;-68
2023/07/08 08:04:42;;;;;;;2.95;2.00;;;26.20;44.10;;;;;;4977145;28;20073;-68
2023/07/08 08:07:07;;;;;;;2.67;2.08;;;26.20;44.10;;;;;;4977670;28;20065;-67
2023/07/08 08:09:33;;;;;;;2.40;1.90;;;26.20;44.10;;;;;;4977602;28;20023;-67
2023/07/08 08:12:02;;;;;;;2.22;1.70;;;26.20;44.10;;;;;;4980386;28;20097;-68
2023/07/08 08:14:27;;;;;;;2.60;1.92;;;26.20;44.10;;;;;;4980556;28;20031;-68
2023/07/08 08:16:53;;;;;;;2.63;2.05;;;26.20;44.10;;;;;;4975717;28;20034;-68
2023/07/08 08:19:19;;;;;;;2.60;2.03;;;26.20;44.10;;;;;;4980661;28;20038;-67
2023/07/08 08:21:44;;;;;;;2.63;2.00;;;26.20;44.10;;;;;;4980682;28;20525;-68
2023/07/08 08:24:10;;;;;;;2.70;1.80;;;26.20;44.10;;;;;;4964697;28;20026;-68
2023/07/08 08:26:35;;;;;;;2.50;2.00;;;26.20;44.10;;;;;;4978213;28;20035;-67
2023/07/08 08:29:01;;;;;;;2.35;1.95;;;26.10;44.10;;;;;;4978323;28;20051;-68
2023/07/08 08:31:27;;;;;;;2.63;2.00;;;26.20;44.20;;;;;;4976681;28;20038;-67
2023/07/08 08:33:52;;;;;;;2.47;1.77;;;26.10;44.10;;;;;;4979314;28;20494;-67
2023/07/08 08:36:18;;;;;;;2.85;2.10;;;26.10;44.10;;;;;;4978420;28;20034;-67
2023/07/08 08:38:44;;;;;;;2.97;2.08;;;26.10;44.10;;;;;;4970344;28;20173;-69
2023/07/08 08:41:15;;;;;;;2.88;2.10;;;26.10;44.20;;;;;;4964426;28;20033;-67
2023/07/08 08:43:42;;;;;;;2.75;2.00;;;26.10;44.20;;;;;;4978027;28;20027;-67
2023/07/08 08:46:27;;;;;;;2.65;1.80;;;26.10;44.20;;;;;;4976102;28;20035;-68
2023/07/08 08:49:32;;;;;;;2.60;1.90;;;26.10;44.20;;;;;;4978931;28;20031;-67
2023/07/08 08:51:59;;;;;;;2.95;2.00;;;26.10;44.20;;;;;;4965395;28;20117;-67
2023/07/08 08:54:25;;;;;;;2.20;1.80;;;26.10;44.20;;;;;;4975091;28;20023;-67
2023/07/08 08:57:01;;;;;;;2.85;2.10;;;26.10;44.20;;;;;;4968588;28;20545;-67
2023/07/08 08:59:35;;;;;;;2.90;2.10;;;26.10;44.20;;;;;;4979365;28;20077;-68
2023/07/08 09:02:09;;;;;;;2.70;1.90;;;26.10;44.20;;;;;;4961429;28;20459;-67
2023/07/08 09:04:36;;;;;;;2.60;1.90;;;26.20;44.30;;;;;;4977290;28;20090;-68
2023/07/08 09:07:14;;;;;;;2.50;1.98;;;26.10;44.30;;;;;;4977537;28;20030;-68
2023/07/08 09:10:07;;;;;;;2.60;2.00;;;26.10;44.20;;;;;;4978458;28;20105;-67
2023/07/08 09:12:34;;;;;;;2.45;1.90;;;26.10;44.30;;;;;;4970641;28;20042;-68
2023/07/08 09:15:11;;;;;;;2.42;1.83;;;26.10;44.30;;;;;;4983255;28;20392;-68
2023/07/08 09:17:38;;;;;;;2.40;1.80;;;26.10;44.30;;;;;;4979074;28;20027;-67
2023/07/08 09:20:06;;;;;;;2.33;1.75;;;26.10;44.30;;;;;;4980847;28;20030;-68
2023/07/08 09:22:51;;;;;;;2.42;1.83;;;26.10;44.30;;;;;;4982914;28;20153;-68
2023/07/08 09:25:40;;;;;;;2.25;1.85;;;26.10;44.30;;;;;;4964897;28;20038;-68
2023/07/08 09:28:07;;;;;;;2.67;1.80;;;26.10;44.30;;;;;;4980922;28;20035;-67
2023/07/08 09:30:33;;;;;;;2.67;2.00;;;26.10;44.30;;;;;;4982173;28;20031;-68
2023/07/08 09:33:03;;;;;;;2.53;1.90;;;26.10;44.30;;;;;;4981151;28;20054;-67
2023/07/08 09:35:38;;;;;;;2.90;2.08;;;26.10;44.40;;;;;;4980518;28;20541;-67
2023/07/08 09:38:09;;;;;;;3.00;2.10;;;26.10;44.40;;;;;;4982304;28;20030;-68
2023/07/08 09:40:35;;;;;;;2.38;1.80;;;26.10;44.40;;;;;;4964523;28;20069;-67
2023/07/08 09:43:21;;;;;;;2.75;2.03;;;26.10;44.40;;;;;;4982137;28;20420;-66
2023/07/08 09:45:47;;;;;;;2.60;1.90;;;26.10;44.40;;;;;;4980758;28;20041;-68
2023/07/08 09:48:35;;;;;;;3.00;2.10;;;26.10;44.40;;;;;;4980890;28;20095;-67
2023/07/08 09:51:02;;;;;;;2.95;2.13;;;26.10;44.40;;;;;;4982983;28;20114;-67
2023/07/08 09:53:28;;;;;;;2.60;2.00;;;26.10;44.40;;;;;;4982652;28;20114;-68
2023/07/08 09:55:57;;;;;;;2.47;2.00;;;26.10;44.40;;;;;;4963799;28;20519;-67
2023/07/08 09:58:29;;;;;;;2.58;1.88;;;26.10;44.40;;;;;;4981620;28;20459;-67
2023/07/08 10:01:00;;;;;;;2.80;2.03;;;26.10;44.40;;;;;;4965449;28;20034;-67
2023/07/08 10:03:30;;;;;;;2.72;1.98;;;26.10;44.40;;;;;;4980094;28;20062;-67
2023/07/08 10:06:00;;;;;;;2.58;1.90;;;26.10;44.40;;;;;;4972199;28;20553;-67
2023/07/08 10:08:41;;;;;;;2.70;1.98;;;26.10;44.40;;;;;;4980032;28;20368;-67
2023/07/08 10:11:39;;;;;;;2.63;2.00;;;26.10;44.40;;;;;;4981268;28;20471;-67
2023/07/08 10:14:29;;;;;;;2.72;2.05;;;26.10;44.40;;;;;;4980295;28;20172;-68
2023/07/08 10:16:55;;;;;;;2.50;1.90;;;26.10;44.40;;;;;;4978869;28;20141;-67
2023/07/08 10:19:21;;;;;;;2.60;1.88;;;26.10;44.40;;;;;;4981828;28;20121;-68
2023/07/08 10:22:23;;;;;;;2.55;1.88;;;26.10;44.40;;;;;;4981318;28;20129;-67
2023/07/08 10:25:00;;;;;;;2.25;1.90;;;26.10;44.50;;;;;;4981517;28;20031;-68
2023/07/08 10:27:37;;;;;;;2.75;2.00;;;26.10;44.40;;;;;;4980717;28;20486;-67
2023/07/08 10:30:05;;;;;;;2.95;2.10;;;26.10;44.40;;;;;;4981006;28;20057;-67
2023/07/08 10:32:52;;;;;;;2.90;1.98;;;26.10;44.50;;;;;;4980046;28;20130;-67
2023/07/08 10:35:23;;;;;;;2.80;2.28;;;26.00;44.40;;;;;;4978952;28;20023;-67
2023/07/08 10:37:56;;;;;;;2.60;1.90;;;26.10;44.50;;;;;;4982907;28;20034;-67
2023/07/08 10:40:46;;;;;;;2.35;1.83;;;26.00;44.40;;;;;;4962491;28;20023;-67
2023/07/08 10:43:29;;;;;;;2.90;2.10;;;26.10;44.50;;;;;;4978007;28;20130;-67
2023/07/08 10:46:10;;;;;;;3.50;2.05;;;26.10;44.50;;;;;;4982269;28;20145;-67
2023/07/08 10:49:23;;;;;;;3.28;2.17;;;26.10;44.50;;;;;;4961598;28;20096;-67
2023/07/08 10:52:02;;;;;;;2.72;2.10;;;26.00;44.40;;;;;;4974751;28;20051;-67
2023/07/08 10:54:27;;;;;;;2.60;1.90;;;26.00;44.40;;;;;;4981423;28;20033;-67
2023/07/08 10:57:30;;;;;;;3.10;2.00;;;26.10;44.50;;;;;;4978968;28;20030;-67
2023/07/08 11:00:08;;;;;;;2.60;1.90;;;26.00;44.40;;;;;;4981518;28;20113;-67
2023/07/08 11:02:42;;;;;;;2.53;2.00;;;26.10;44.50;;;;;;4978374;28;20425;-67
2023/07/08 11:05:08;;;;;;;2.65;1.88;;;26.10;44.50;;;;;;4963099;28;20038;-68
2023/07/08 11:08:03;;;;;;;3.00;2.20;;;26.10;45.00;;;;;;4979724;28;20045;-67
2023/07/08 11:10:35;;;;;;;2.90;2.38;;;26.00;44.50;;;;;;4978784;28;20043;-67
2023/07/08 11:13:01;;;;;;;2.85;2.20;;;26.10;44.50;;;;;;4980195;28;20081;-67
2023/07/08 11:15:40;;;;;;;3.05;2.17;;;26.10;44.50;;;;;;4967111;28;20019;-67
2023/07/08 11:18:40;;;;;;;2.83;2.30;;;26.00;44.50;;;;;;4979228;28;20035;-67
2023/07/08 11:21:14;;;;;;;2.50;1.98;;;26.00;44.50;;;;;;4941008;28;20081;-67
2023/07/08 11:24:00;;;;;;;2.88;2.10;;;26.10;44.60;;;;;;4981770;28;20109;-67
2023/07/08 11:26:44;;;;;;;3.03;2.10;;;26.00;44.50;;;;;;4979960;28;20029;-67
2023/07/08 11:29:28;;;;;;;3.00;1.95;;;26.00;44.50;;;;;;4981312;28;20101;-67
2023/07/08 11:31:55;;;;;;;2.70;2.10;;;26.00;44.50;;;;;;4978155;28;20058;-67
2023/07/08 11:34:21;;;;;;;3.20;2.20;;;26.00;44.50;;;;;;4963904;28;20041;-67
2023/07/08 11:36:49;;;;;;;2.80;2.10;;;26.10;44.60;;;;;;4965484;28;20121;-67
2023/07/08 11:39:42;;;;;;;2.70;2.08;;;26.00;44.50;;;;;;4982672;28;20037;-67
2023/07/08 11:42:16;;;;;;;3.08;2.20;;;26.10;44.60;;;;;;4978632;28;20037;-67
2023/07/08 11:44:49;;;;;;;2.65;1.90;;;26.10;44.60;;;;;;4976888;28;20082;-68
2023/07/08 11:47:39;;;;;;;2.28;1.60;;;26.10;44.60;;;;;;4963763;28;20030;-67
2023/07/08 11:50:19;;;;;;;2.17;1.58;;;26.00;44.60;;;;;;4979264;28;20502;-67
2023/07/08 11:53:21;;;;;;;2.70;1.80;;;26.10;44.60;;;;;;4979705;28;20058;-67
2023/07/08 11:55:58;;;;;;;2.13;1.52;;;26.10;44.60;;;;;;4942697;28;20751;-67
2023/07/08 11:58:50;;;;;;;2.95;2.10;;;26.10;44.60;;;;;;4979295;28;20056;-66
2023/07/08 12:01:47;;;;;;;2.50;1.85;;;26.10;44.60;;;;;;4976054;28;20512;-67
2023/07/08 12:04:12;;;;;;;2.30;1.65;;;26.10;44.60;;;;;;4949459;28;20100;-67
2023/07/08 12:06:38;;;;;;;2.78;2.08;;;26.10;44.60;;;;;;4977269;28;20043;-67
2023/07/08 12:09:26;;;;;;;2.40;1.65;;;26.10;44.60;;;;;;4979306;28;20442;-67
2023/07/08 12:12:05;;;;;;;2.65;1.70;;;26.10;44.70;;;;;;4980007;28;20128;-67
2023/07/08 12:14:31;;;;;;;2.88;2.00;;;26.10;44.70;;;;;;4978881;28;20501;-67
2023/07/08 12:16:58;;;;;;;2.50;1.80;;;26.10;44.70;;;;;;4979122;28;20031;-67
2023/07/08 12:19:28;;;;;;;2.63;1.92;;;26.10;44.70;;;;;;4977381;28;20026;-67
2023/07/08 12:21:54;;;;;;;2.28;1.88;;;26.10;44.70;;;;;;4981162;28;20026;-67
2023/07/08 12:24:26;;;;;;;2.28;1.60;;;26.10;44.70;;;;;;4980459;28;20493;-67
2023/07/08 12:26:52;;;;;;;2.65;2.00;;;26.10;44.70;;;;;;4977788;28;20030;-67
2023/07/08 12:29:17;;;;;;;2.15;1.70;;;26.10;44.70;;;;;;4978509;28;20080;-67
2023/07/08 12:31:44;;;;;;;2.72;1.60;;;26.10;44.70;;;;;;4969838;28;20062;-67
2023/07/08 12:34:13;;;;;;;2.47;1.67;;;26.10;44.80;;;;;;4977901;28;20027;-67
2023/07/08 12:36:39;;;;;;;2.15;1.60;;;26.10;44.70;;;;;;4979829;28;20026;-67
2023/07/08 12:39:06;;;;;;;2.60;1.75;;;26.10;44.70;;;;;;4977210;28;20364;-67
2023/07/08 12:41:34;;;;;;;2.28;1.70;;;26.10;44.80;;;;;;4980011;28;20023;-67
2023/07/08 12:44:01;;;;;;;2.30;1.60;;;26.10;44.80;;;;;;4978802;28;20023;-66
2023/07/08 12:46:28;;;;;;;2.38;1.70;;;26.10;45.30;;;;;;4976519;28;20545;-67
2023/07/08 12:48:54;;;;;;;2.60;1.92;;;26.10;44.80;;;;;;4975448;28;20031;-67
2023/07/08 12:51:22;;;;;;;2.67;2.00;;;26.10;44.80;;;;;;4977637;28;20050;-67
2023/07/08 12:53:49;;;;;;;2.85;2.13;;;26.10;44.80;;;;;;4980015;28;20030;-67
2023/07/08 12:56:16;;;;;;;2.72;1.98;;;26.10;44.90;;;;;;4978773;28;20181;-67
2023/07/08 12:58:46;;;;;;;2.85;2.22;;;26.10;44.90;;;;;;4978313;28;20046;-67
2023/07/08 13:01:19;;;;;;;2.88;1.90;;;26.10;44.90;;;;;;4979024;28;20038;-67